createdAt,value
2022-08-23T00:01:26.689Z,212.99563
2022-08-23T00:06:31.425Z,189.41833
2022-08-23T00:11:32.995Z,181.83784
2022-08-23T00:16:34.606Z,193.39271
2022-08-23T00:21:36.215Z,187.47826
2022-08-23T00:26:37.930Z,172.14815
2022-08-23T00:31:39.535Z,179.1145
2022-08-23T00:36:41.288Z,195.42857
2022-08-23T00:41:42.887Z,181.83784
2022-08-23T00:46:44.534Z,182.75969
2022-08-23T00:51:53.114Z,203.91561
2022-08-23T00:56:55.226Z,208.37768
2022-08-23T01:01:56.881Z,180.01533
2022-08-23T01:06:58.650Z,208.37768
2022-08-23T01:12:00.266Z,198.54545
2022-08-23T01:17:01.887Z,180.01533
2022-08-23T01:22:03.510Z,183.68872
2022-08-23T01:27:05.134Z,180.01533
2022-08-23T01:32:06.900Z,175.57895
2022-08-23T01:37:08.457Z,181.83784
2022-08-23T01:42:10.248Z,193.39271
2022-08-23T01:47:11.833Z,192.3871
2022-08-23T01:52:13.461Z,165.58273
2022-08-23T01:57:15.081Z,166.38267
2022-08-23T02:02:16.685Z,164
2022-08-23T02:07:18.338Z,172.14815
2022-08-23T02:12:20.172Z,165.58273
2022-08-23T02:17:21.814Z,163.21708
2022-08-23T02:22:23.489Z,168.81752
2022-08-23T02:27:25.080Z,168
2022-08-23T02:32:27.100Z,163.21708
2022-08-23T02:37:28.926Z,172.14815
2022-08-23T02:42:30.528Z,160.14035
2022-08-23T02:47:32.174Z,160.90141
2022-08-23T02:52:33.894Z,169.64103
2022-08-23T02:57:35.770Z,169.64103
2022-08-23T03:02:37.408Z,157.14879
2022-08-23T03:07:39.035Z,168.81752
2022-08-23T03:12:40.844Z,170.47059
2022-08-23T03:17:42.446Z,158.63415
2022-08-23T03:22:54.270Z,160.14035
2022-08-23T03:27:56.620Z,169.64103
2022-08-23T03:32:58.216Z,159.38462
2022-08-23T03:37:59.936Z,179.1145
2022-08-23T03:43:01.634Z,171.30627
2022-08-23T03:48:03.240Z,161.66784
2022-08-23T03:53:04.838Z,165.58273
2022-08-23T03:58:06.452Z,161.66784
2022-08-23T04:03:08.095Z,166.38267
2022-08-23T04:08:09.703Z,164
2022-08-23T04:13:11.485Z,160.14035
2022-08-23T04:18:13.167Z,160.14035
2022-08-23T04:23:14.754Z,159.38462
2022-08-23T04:28:16.328Z,161.66784
2022-08-23T04:33:18.286Z,156.41379
2022-08-23T04:38:24.965Z,160.14035
2022-08-23T04:43:26.882Z,162.43972
2022-08-23T04:48:28.496Z,161.66784
2022-08-23T04:53:30.131Z,168
2022-08-23T04:58:31.759Z,167.18841
2022-08-23T05:03:33.530Z,162.43972
2022-08-23T05:08:35.150Z,157.88889
2022-08-23T05:13:36.715Z,162.43972
2022-08-23T05:18:38.309Z,163.21708
2022-08-23T05:23:39.992Z,163.21708
2022-08-23T05:28:42.274Z,160.14035
2022-08-23T05:33:43.871Z,160.14035
2022-08-23T05:38:45.456Z,160.14035
2022-08-23T05:43:48.017Z,166.38267
2022-08-23T05:48:50.091Z,163.21708
2022-08-23T05:53:51.835Z,160.90141
2022-08-23T05:58:56.615Z,159.38462
2022-08-23T06:04:01.374Z,160.90141
2022-08-23T06:09:02.970Z,163.21708
2022-08-23T06:14:04.740Z,162.43972
2022-08-23T06:19:06.383Z,159.38462
2022-08-23T06:24:07.996Z,163.21708
2022-08-23T06:29:09.791Z,159.38462
2022-08-23T06:34:11.460Z,164.78853
2022-08-23T06:39:13.136Z,160.90141
2022-08-23T06:44:14.759Z,164.78853
2022-08-23T06:49:16.369Z,165.58273
2022-08-23T06:54:17.976Z,160.90141
2022-08-23T06:59:19.874Z,161.66784
2022-08-23T07:04:21.479Z,160.90141
2022-08-23T07:09:23.083Z,164
2022-08-23T07:14:24.673Z,160.14035
2022-08-23T07:19:29.286Z,160.14035
2022-08-23T07:24:33.507Z,158.63415
2022-08-23T07:29:35.590Z,158.63415
2022-08-23T07:34:37.226Z,157.88889
2022-08-23T07:39:38.819Z,164.78853
2022-08-23T07:44:42.447Z,166.38267
2022-08-23T07:49:44.613Z,164.78853
2022-08-23T07:54:48.258Z,167.18841
2022-08-23T07:59:50.342Z,164.78853
2022-08-23T08:04:51.987Z,169.64103
2022-08-23T08:09:53.599Z,171.30627
2022-08-23T08:14:56.501Z,166.38267
2022-08-23T08:19:58.139Z,167.18841
2022-08-23T08:24:59.770Z,170.47059
2022-08-23T08:30:01.408Z,164.78853
2022-08-23T08:35:03.134Z,163.21708
2022-08-23T08:40:05.023Z,177.33333
2022-08-23T08:45:06.658Z,172.14815
2022-08-23T08:50:09.771Z,170.47059
2022-08-23T08:55:11.489Z,168.81752
2022-08-23T09:00:13.056Z,171.30627
2022-08-23T09:05:14.672Z,172.14815
2022-08-23T09:10:16.281Z,171.30627
2022-08-23T09:15:17.904Z,172.14815
2022-08-23T09:20:19.513Z,168.81752
2022-08-23T09:25:21.150Z,170.47059
2022-08-23T09:30:22.980Z,175.57895
2022-08-23T09:35:24.716Z,169.64103
2022-08-23T09:40:26.336Z,172.14815
2022-08-23T09:45:29.786Z,171.30627
2022-08-23T09:50:35.076Z,168
2022-08-23T09:55:36.669Z,169.64103
2022-08-23T10:00:38.419Z,167.18841
2022-08-23T10:05:39.989Z,170.47059
2022-08-23T10:10:41.554Z,172.99628
2022-08-23T10:15:45.481Z,170.47059
2022-08-23T10:20:47.328Z,170.47059
2022-08-23T10:25:48.932Z,168.81752
2022-08-23T10:30:50.684Z,168.81752
2022-08-23T10:35:52.336Z,169.64103
2022-08-23T10:40:53.980Z,168
2022-08-23T10:46:00.090Z,166.38267
2022-08-23T10:51:02.173Z,172.14815
2022-08-23T10:56:03.855Z,172.14815
2022-08-23T11:01:05.463Z,170.47059
2022-08-23T11:06:07.091Z,171.30627
2022-08-23T11:11:08.756Z,173.85075
2022-08-23T11:16:10.382Z,172.99628
2022-08-23T11:21:11.993Z,174.71161
2022-08-23T11:26:13.566Z,169.64103
2022-08-23T11:31:15.245Z,175.57895
2022-08-23T11:36:16.850Z,183.68872
2022-08-23T11:41:18.432Z,180.01533
2022-08-23T11:46:20.080Z,176.45283
2022-08-23T11:51:22.619Z,175.57895
2022-08-23T11:56:24.191Z,179.1145
2022-08-23T12:01:25.836Z,176.45283
2022-08-23T12:06:27.426Z,174.71161
2022-08-23T12:11:29.037Z,173.85075
2022-08-23T12:16:30.714Z,172.99628
2022-08-23T12:21:32.499Z,173.85075
2022-08-23T12:26:35.277Z,174.71161
2022-08-23T12:31:37.053Z,172.99628
2022-08-23T12:36:38.711Z,172.99628
2022-08-23T12:41:40.348Z,174.71161
2022-08-23T12:46:42.059Z,175.57895
2022-08-23T12:51:43.707Z,180.92308
2022-08-23T12:56:45.319Z,175.57895
2022-08-23T13:01:46.974Z,175.57895
2022-08-23T13:06:49.567Z,173.85075
2022-08-23T13:11:51.335Z,172.14815
2022-08-23T13:16:52.912Z,171.30627
2022-08-23T13:21:56.416Z,168.81752
2022-08-23T13:26:58.421Z,172.99628
2022-08-23T13:32:03.427Z,172.99628
2022-08-23T13:37:07.530Z,172.99628
2022-08-23T13:42:09.083Z,172.99628
2022-08-23T13:47:10.667Z,172.14815
2022-08-23T13:52:41.678Z,173.85075
2022-08-23T13:57:58.216Z,171.30627
2022-08-23T14:03:00.037Z,173.85075
2022-08-23T14:08:01.781Z,174.71161
2022-08-23T14:13:03.566Z,176.45283
2022-08-23T14:18:05.452Z,181.83784
2022-08-23T14:23:12.342Z,178.22053
2022-08-23T14:28:14.230Z,180.01533
2022-08-23T14:33:15.949Z,179.1145
2022-08-23T14:38:18.051Z,187.47826
2022-08-23T14:43:19.935Z,187.47826
2022-08-23T14:48:21.497Z,190.4
2022-08-23T14:53:23.090Z,190.4
2022-08-23T14:58:24.751Z,191.38956
2022-08-23T15:03:26.423Z,188.44444
2022-08-23T15:08:28.044Z,187.47826
2022-08-23T15:13:33.858Z,187.47826
2022-08-23T15:18:37.173Z,192.3871
2022-08-23T15:23:38.902Z,194.4065
2022-08-23T15:28:40.542Z,191.38956
2022-08-23T15:33:42.137Z,191.38956
2022-08-23T15:38:43.996Z,195.42857
2022-08-23T15:43:45.653Z,189.41833
2022-08-23T15:48:47.234Z,191.38956
2022-08-23T15:53:48.918Z,196.45902
2022-08-23T15:58:50.582Z,197.49794
2022-08-23T16:03:52.285Z,199.60166
2022-08-23T16:08:53.866Z,201.74059
2022-08-23T16:13:55.823Z,193.39271
2022-08-23T16:18:57.518Z,202.82353
2022-08-23T16:23:59.107Z,205.01695
2022-08-23T16:29:00.682Z,197.49794
2022-08-23T16:34:02.504Z,207.24786
2022-08-23T16:39:04.103Z,205.01695
2022-08-23T16:44:05.794Z,207.24786
2022-08-23T16:49:07.387Z,214.17544
2022-08-23T16:54:08.992Z,203.91561
2022-08-23T16:59:10.538Z,201.74059
2022-08-23T17:04:12.163Z,199.60166
2022-08-23T17:09:13.802Z,219
2022-08-23T17:14:15.401Z,216.56637
2022-08-23T17:19:16.974Z,199.60166
2022-08-23T17:24:18.550Z,199.60166
2022-08-23T17:29:20.435Z,201.74059
2022-08-23T17:34:22.076Z,197.49794
2022-08-23T17:39:23.638Z,197.49794
2022-08-23T17:44:25.349Z,221.47748
2022-08-23T17:49:26.985Z,210.66667
2022-08-23T17:54:28.561Z,229.18519
2022-08-23T17:59:30.156Z,219
2022-08-23T18:04:31.857Z,219
2022-08-23T18:09:33.491Z,220.23318
2022-08-23T18:14:35.063Z,212.99563
2022-08-23T18:19:36.653Z,214.17544
2022-08-23T18:24:38.292Z,217.77778
2022-08-23T18:29:39.890Z,222.73303
2022-08-23T18:34:44.583Z,211.82609
2022-08-23T18:39:46.362Z,211.82609
2022-08-23T18:44:47.967Z,220.23318
2022-08-23T18:49:49.730Z,211.82609
2022-08-23T18:54:51.337Z,210.66667
2022-08-23T18:59:53.279Z,224
2022-08-23T19:04:54.898Z,211.82609
2022-08-23T19:09:56.637Z,215.36564
2022-08-23T19:14:58.261Z,212.99563
2022-08-23T19:19:59.830Z,195.42857
2022-08-23T19:25:01.426Z,200.66667
2022-08-23T19:30:03.067Z,209.51724
2022-08-23T19:35:08.250Z,189.41833
2022-08-23T19:40:09.925Z,190.4
2022-08-23T19:45:11.572Z,203.91561
2022-08-23T19:50:13.177Z,201.74059
2022-08-23T19:55:14.793Z,205.01695
2022-08-23T20:00:19.573Z,211.82609
2022-08-23T20:05:21.482Z,211.82609
2022-08-23T20:10:23.084Z,225.27854
2022-08-23T20:15:24.705Z,196.45902
2022-08-23T20:20:26.389Z,198.54545
2022-08-23T20:25:27.972Z,203.91561
2022-08-23T20:30:29.677Z,207.24786
2022-08-23T20:35:31.263Z,211.82609
2022-08-23T20:40:32.915Z,210.66667
2022-08-23T20:45:34.600Z,210.66667
2022-08-23T20:50:36.196Z,208.37768
2022-08-23T20:55:37.786Z,197.49794
2022-08-23T21:00:39.415Z,209.51724
2022-08-23T21:05:41.067Z,202.82353
2022-08-23T21:10:44.948Z,205.01695
2022-08-23T21:15:47.365Z,198.54545
2022-08-23T21:20:49.014Z,194.4065
2022-08-23T21:25:50.663Z,198.54545
2022-08-23T21:30:52.461Z,200.66667
2022-08-23T21:35:54.339Z,201.74059
2022-08-23T21:40:56.003Z,205.01695
2022-08-23T21:45:57.687Z,206.12766
2022-08-23T21:50:59.294Z,195.42857
2022-08-23T21:56:00.909Z,188.44444
2022-08-23T22:01:02.504Z,190.4
2022-08-23T22:06:04.112Z,181.83784
2022-08-23T22:11:05.699Z,182.75969
2022-08-23T22:16:07.535Z,182.75969
2022-08-23T22:21:09.216Z,170.47059
2022-08-23T22:26:10.795Z,179.1145
2022-08-23T22:31:12.437Z,174.71161
2022-08-23T22:36:14.164Z,172.99628
2022-08-23T22:41:15.758Z,168
2022-08-23T22:46:17.399Z,173.85075
2022-08-23T22:51:19.065Z,176.45283
2022-08-23T22:56:20.692Z,177.33333
2022-08-23T23:01:22.334Z,180.01533
2022-08-23T23:06:24.237Z,178.22053
2022-08-23T23:11:25.850Z,198.54545
2022-08-23T23:16:27.493Z,182.75969
2022-08-23T23:21:29.277Z,214.17544
2022-08-23T23:26:30.904Z,197.49794
2022-08-23T23:31:32.495Z,193.39271
2022-08-23T23:36:34.091Z,172.99628
2022-08-23T23:41:35.798Z,173.85075
2022-08-23T23:46:37.396Z,186.51969
2022-08-23T23:51:39.153Z,156.41379
2022-08-23T23:56:40.788Z,166.38267
